createdAt,value
2019-01-03T00:02:04.641Z,100655.06
2019-01-03T00:04:35.835Z,100658.09
2019-01-03T00:07:07.164Z,100653.23
2019-01-03T00:09:38.344Z,100652.17
2019-01-03T00:12:09.676Z,100654.01
2019-01-03T00:14:40.831Z,100655.86
2019-01-03T00:20:18.244Z,100659.81
2019-01-03T00:22:49.402Z,100664.52
2019-01-03T00:25:20.627Z,100667.13
2019-01-03T00:27:51.813Z,100665.81
2019-01-03T00:30:23.011Z,100672.22
2019-01-03T00:32:54.200Z,100676.28
2019-01-03T00:35:25.813Z,100673.03
2019-01-03T00:37:56.984Z,100677.86
2019-01-03T00:40:28.135Z,100676.27
2019-01-03T00:43:00.827Z,100679.05
2019-01-03T00:45:31.999Z,100678.09
2019-01-03T00:48:03.189Z,100674.48
2019-01-03T00:50:34.457Z,100678.09
2019-01-03T00:53:05.605Z,100678.29
2019-01-03T00:55:36.842Z,100675.73
2019-01-03T00:58:27.345Z,100676.41
2019-01-03T01:00:58.555Z,100676.16
2019-01-03T01:03:29.717Z,100675.67
2019-01-03T01:06:00.925Z,100674.63
2019-01-03T01:08:32.081Z,100676.73
2019-01-03T01:11:12.260Z,100677.87
2019-01-03T01:13:43.282Z,100677.14
2019-01-03T01:16:33.761Z,100672.99
2019-01-03T01:19:04.943Z,100671.46
2019-01-03T01:21:37.281Z,100679.63
2019-01-03T01:24:08.484Z,100674.17
2019-01-03T01:26:39.696Z,100679.41
2019-01-03T01:29:10.875Z,100681.96
2019-01-03T01:31:42.091Z,100680.17
2019-01-03T01:34:13.285Z,100684.84
2019-01-03T01:36:44.455Z,100682.80
2019-01-03T01:39:18.585Z,100689.52
2019-01-03T01:41:49.731Z,100690.12
2019-01-03T01:44:20.890Z,100692.83
2019-01-03T01:46:52.091Z,100686.20
2019-01-03T01:49:23.272Z,100689.00
2019-01-03T01:51:54.426Z,100691.08
2019-01-03T01:54:25.610Z,100692.14
2019-01-03T01:56:56.797Z,100695.37
2019-01-03T01:59:27.959Z,100690.42
2019-01-03T02:01:59.173Z,100697.53
2019-01-03T02:04:30.365Z,100695.01
2019-01-03T02:07:01.628Z,100696.31
2019-01-03T02:09:32.825Z,100699.27
2019-01-03T02:12:04.001Z,100704.46
2019-01-03T02:14:35.165Z,100701.61
2019-01-03T02:17:06.352Z,100701.16
2019-01-03T02:19:37.516Z,100705.08
2019-01-03T02:22:09.749Z,100704.30
2019-01-03T02:24:40.919Z,100707.02
2019-01-03T02:27:12.083Z,100702.32
2019-01-03T02:29:43.273Z,100700.83
2019-01-03T02:32:14.477Z,100704.50
2019-01-03T02:34:47.118Z,100699.89
2019-01-03T02:37:18.301Z,100701.41
2019-01-03T02:39:52.395Z,100707.17
2019-01-03T02:42:23.599Z,100711.64
2019-01-03T02:44:54.750Z,100709.76
2019-01-03T02:47:26.019Z,100710.39
2019-01-03T02:49:57.169Z,100709.32
2019-01-03T02:52:28.314Z,100710.73
2019-01-03T02:54:59.520Z,100711.13
2019-01-03T02:57:49.955Z,100711.16
2019-01-03T03:00:21.566Z,100707.89
2019-01-03T03:02:52.755Z,100708.75
2019-01-03T03:05:23.899Z,100709.23
2019-01-03T03:07:55.183Z,100711.33
2019-01-03T03:10:26.371Z,100710.16
2019-01-03T03:12:57.552Z,100697.20
2019-01-03T03:15:48.318Z,100697.72
2019-01-03T03:18:19.506Z,100698.02
2019-01-03T03:20:50.667Z,100685.94
2019-01-03T03:23:21.870Z,100686.16
2019-01-03T03:25:53.028Z,100674.05
2019-01-03T03:28:24.199Z,100675.00
2019-01-03T03:30:55.392Z,100667.72
2019-01-03T03:33:26.585Z,100660.91
2019-01-03T03:35:57.748Z,100660.94
2019-01-03T03:38:29.304Z,100653.50
2019-01-03T03:41:00.455Z,100653.13
2019-01-03T03:43:40.660Z,100652.42
2019-01-03T03:46:11.829Z,100651.00
2019-01-03T03:48:43.019Z,100647.23
2019-01-03T03:51:14.540Z,100649.66
2019-01-03T03:53:45.739Z,100659.37
2019-01-03T03:56:16.916Z,100662.31
2019-01-03T03:58:48.136Z,100652.86
2019-01-03T04:01:19.304Z,100646.63
2019-01-03T04:03:50.497Z,100649.48
2019-01-03T04:06:21.689Z,100638.59
2019-01-03T04:08:52.837Z,100633.68
2019-01-03T04:11:24.006Z,100630.39
2019-01-03T04:13:55.224Z,100617.34
2019-01-03T04:16:26.405Z,100618.24
2019-01-03T04:19:03.712Z,100608.77
2019-01-03T04:21:34.881Z,100594.69
2019-01-03T04:24:07.301Z,100594.84
2019-01-03T04:26:38.929Z,100600.82
2019-01-03T04:29:10.112Z,100606.72
2019-01-03T04:32:00.913Z,100608.53
2019-01-03T04:34:32.102Z,100602.25
2019-01-03T04:37:03.265Z,100605.95
2019-01-03T04:39:34.444Z,100613.80
2019-01-03T04:42:05.656Z,100626.28
2019-01-03T04:44:36.824Z,100624.50
2019-01-03T04:47:08.151Z,100626.38
2019-01-03T04:49:39.330Z,100621.78
2019-01-03T04:52:10.519Z,100622.42
2019-01-03T04:54:41.684Z,100624.38
2019-01-03T04:57:12.849Z,100615.21
2019-01-03T05:02:34.223Z,100608.06
2019-01-03T05:05:08.811Z,100616.07
2019-01-03T05:07:46.090Z,100613.83
2019-01-03T05:10:17.262Z,100606.59
2019-01-03T05:12:48.460Z,100602.77
2019-01-03T05:15:19.621Z,100602.06
2019-01-03T05:17:50.817Z,100598.64
2019-01-03T05:20:22.080Z,100601.38
2019-01-03T05:22:53.647Z,100609.59
2019-01-03T05:25:25.602Z,100599.37
2019-01-03T05:27:56.798Z,100594.08
2019-01-03T05:30:27.972Z,100599.57
2019-01-03T05:32:59.144Z,100613.19
2019-01-03T05:35:30.333Z,100605.77
2019-01-03T05:38:01.980Z,100593.49
2019-01-03T05:40:33.191Z,100586.16
2019-01-03T05:43:04.746Z,100594.26
2019-01-03T05:45:35.985Z,100596.95
2019-01-03T05:48:07.130Z,100603.11
2019-01-03T05:50:38.677Z,100598.39
2019-01-03T05:53:10.168Z,100595.92
2019-01-03T05:55:41.315Z,100599.03
2019-01-03T05:58:12.369Z,100598.41
2019-01-03T06:00:43.577Z,100605.21
2019-01-03T06:03:14.733Z,100611.94
2019-01-03T06:05:45.893Z,100612.16
2019-01-03T06:08:17.404Z,100614.11
2019-01-03T06:10:48.590Z,100613.37
2019-01-03T06:13:19.768Z,100607.73
2019-01-03T06:15:50.952Z,100606.78
2019-01-03T06:18:22.110Z,100607.27
2019-01-03T06:20:57.726Z,100605.52
2019-01-03T06:23:28.886Z,100609.47
2019-01-03T06:26:00.041Z,100604.97
2019-01-03T06:28:36.703Z,100605.22
2019-01-03T06:31:07.856Z,100600.05
2019-01-03T06:33:39.011Z,100606.12
2019-01-03T06:36:10.224Z,100618.39
2019-01-03T06:38:41.793Z,100622.02
2019-01-03T06:41:13.036Z,100616.84
2019-01-03T06:43:44.689Z,100619.52
2019-01-03T06:46:15.844Z,100623.48
2019-01-03T06:48:47.060Z,100633.63
2019-01-03T06:51:18.239Z,100631.65
2019-01-03T06:53:49.403Z,100630.97
2019-01-03T06:56:20.616Z,100619.28
2019-01-03T06:58:51.863Z,100621.20
2019-01-03T07:01:23.108Z,100622.78
2019-01-03T07:03:54.282Z,100626.44
2019-01-03T07:06:25.493Z,100633.78
2019-01-03T07:08:56.646Z,100626.42
2019-01-03T07:11:28.313Z,100637.41
2019-01-03T07:13:59.560Z,100645.77
2019-01-03T07:16:30.765Z,100648.34
2019-01-03T07:19:01.948Z,100650.39
2019-01-03T07:21:33.155Z,100648.88
2019-01-03T07:24:04.340Z,100642.17
2019-01-03T07:26:35.479Z,100647.22
2019-01-03T07:29:06.713Z,100647.91
2019-01-03T07:31:37.884Z,100658.39
2019-01-03T07:34:09.105Z,100669.45
2019-01-03T07:36:40.322Z,100668.55
2019-01-03T07:39:11.504Z,100668.22
2019-01-03T07:41:42.650Z,100672.45
2019-01-03T07:44:13.876Z,100678.80
2019-01-03T07:46:45.052Z,100678.39
2019-01-03T07:49:16.291Z,100669.00
2019-01-03T07:51:47.480Z,100669.33
2019-01-03T07:54:18.649Z,100660.81
2019-01-03T07:56:49.827Z,100667.06
2019-01-03T07:59:21.047Z,100668.15
2019-01-03T08:01:52.194Z,100671.34
2019-01-03T08:04:29.353Z,100667.77
2019-01-03T08:07:00.540Z,100658.79
2019-01-03T08:09:31.726Z,100657.05
2019-01-03T08:12:02.921Z,100666.23
2019-01-03T08:14:34.071Z,100670.30
2019-01-03T08:17:05.259Z,100673.45
2019-01-03T08:19:36.540Z,100673.69
2019-01-03T08:22:07.799Z,100685.75
2019-01-03T08:24:43.693Z,100681.07
2019-01-03T08:27:15.179Z,100678.72
2019-01-03T08:29:46.339Z,100666.22
2019-01-03T08:32:17.509Z,100668.80
2019-01-03T08:34:48.642Z,100669.48
2019-01-03T08:37:22.840Z,100672.74
2019-01-03T08:39:54.003Z,100670.59
2019-01-03T08:42:44.494Z,100673.66
2019-01-03T08:45:21.575Z,100668.17
2019-01-03T08:47:52.793Z,100667.21
2019-01-03T08:50:23.946Z,100661.36
2019-01-03T08:52:55.102Z,100656.63
2019-01-03T08:55:32.185Z,100667.64
2019-01-03T08:58:03.356Z,100660.97
2019-01-03T09:00:34.541Z,100667.23
2019-01-03T09:03:05.796Z,100667.34
2019-01-03T09:05:36.982Z,100679.03
2019-01-03T09:08:08.161Z,100677.63
2019-01-03T09:10:39.351Z,100676.95
2019-01-03T09:13:10.518Z,100689.52
2019-01-03T09:15:41.760Z,100693.26
2019-01-03T09:18:12.966Z,100684.48
2019-01-03T09:20:44.136Z,100682.52
2019-01-03T09:23:15.326Z,100678.45
2019-01-03T09:25:46.542Z,100682.11
2019-01-03T09:28:18.699Z,100686.67
2019-01-03T09:30:49.858Z,100686.55
2019-01-03T09:33:21.072Z,100683.41
2019-01-03T09:35:52.208Z,100679.52
2019-01-03T09:38:23.362Z,100681.56
2019-01-03T09:40:54.566Z,100677.97
2019-01-03T09:43:25.740Z,100680.36
2019-01-03T09:45:55.317Z,100684.52
2019-01-03T09:48:24.963Z,100685.98
2019-01-03T09:50:54.542Z,100679.88
2019-01-03T09:53:24.101Z,100679.46
2019-01-03T09:55:53.692Z,100685.00
2019-01-03T09:58:23.289Z,100677.49
2019-01-03T10:00:52.910Z,100671.33
2019-01-03T10:03:22.510Z,100671.09
2019-01-03T10:05:52.381Z,100681.63
2019-01-03T10:08:21.954Z,100669.67
2019-01-03T10:10:51.609Z,100672.91
2019-01-03T10:13:21.185Z,100677.03
2019-01-03T10:15:50.779Z,100675.03
2019-01-03T10:18:20.377Z,100670.84
2019-01-03T10:20:49.935Z,100665.83
2019-01-03T10:23:19.502Z,100660.69
2019-01-03T10:25:49.105Z,100658.56
2019-01-03T10:28:18.756Z,100661.45
2019-01-03T10:30:48.346Z,100656.59
2019-01-03T10:33:17.932Z,100656.67
2019-01-03T10:35:47.544Z,100661.03
2019-01-03T10:38:20.934Z,100650.21
2019-01-03T10:40:48.461Z,100648.84
2019-01-03T10:43:18.063Z,100645.24
2019-01-03T10:45:47.644Z,100633.28
2019-01-03T10:48:17.336Z,100632.23
2019-01-03T10:51:06.247Z,100626.78
2019-01-03T10:53:36.252Z,100616.41
2019-01-03T10:56:05.813Z,100624.88
2019-01-03T10:58:35.423Z,100622.34
2019-01-03T11:01:05.079Z,100613.86
2019-01-03T11:03:34.663Z,100614.45
2019-01-03T11:06:04.084Z,100614.98
2019-01-03T11:08:33.678Z,100604.36
2019-01-03T11:11:03.247Z,100598.91
2019-01-03T11:13:32.850Z,100593.18
2019-01-03T11:16:02.442Z,100580.20
2019-01-03T11:18:32.039Z,100579.98
2019-01-03T11:21:01.630Z,100587.90
2019-01-03T11:23:32.116Z,100592.52
2019-01-03T11:26:01.708Z,100582.66
2019-01-03T11:28:32.233Z,100579.78
2019-01-03T11:31:02.147Z,100571.78
2019-01-03T11:33:31.941Z,100566.80
2019-01-03T11:36:01.499Z,100564.72
2019-01-03T11:38:31.137Z,100559.29
2019-01-03T11:41:00.717Z,100558.19
2019-01-03T11:43:30.277Z,100556.81
2019-01-03T11:46:00.180Z,100559.88
2019-01-03T11:48:29.750Z,100558.46
2019-01-03T11:50:59.321Z,100559.80
2019-01-03T11:53:28.925Z,100555.41
2019-01-03T11:55:58.516Z,100547.97
2019-01-03T11:58:28.074Z,100548.76
2019-01-03T12:00:57.682Z,100550.61
2019-01-03T12:03:27.288Z,100543.34
2019-01-03T12:05:56.846Z,100546.34
2019-01-03T12:08:26.645Z,100546.70
2019-01-03T12:11:04.914Z,100544.20
2019-01-03T12:13:34.523Z,100545.77
2019-01-03T12:16:03.946Z,100544.05
2019-01-03T12:18:33.516Z,100534.47
2019-01-03T12:21:03.140Z,100536.37
2019-01-03T12:23:32.734Z,100529.95
2019-01-03T12:26:02.286Z,100532.30
2019-01-03T12:28:32.208Z,100534.65
2019-01-03T12:31:01.800Z,100523.78
2019-01-03T12:33:31.381Z,100524.22
2019-01-03T12:36:00.980Z,100529.50
2019-01-03T12:38:30.556Z,100535.63
2019-01-03T12:41:00.123Z,100534.19
2019-01-03T12:43:29.711Z,100525.98
2019-01-03T12:45:59.280Z,100520.94
2019-01-03T12:48:28.855Z,100521.53
2019-01-03T12:50:58.449Z,100519.42
2019-01-03T12:53:28.002Z,100514.95
2019-01-03T12:55:57.572Z,100517.02
2019-01-03T12:58:27.191Z,100516.30
2019-01-03T13:01:16.069Z,100510.20
2019-01-03T13:03:48.010Z,100513.38
2019-01-03T13:06:20.949Z,100507.34
2019-01-03T13:08:48.881Z,100508.00
2019-01-03T13:11:18.521Z,100503.51
2019-01-03T13:13:48.072Z,100506.55
2019-01-03T13:16:36.974Z,100513.16
2019-01-03T13:19:06.560Z,100519.02
2019-01-03T13:21:36.151Z,100521.13
2019-01-03T13:24:05.761Z,100520.62
2019-01-03T13:26:35.370Z,100522.59
2019-01-03T13:29:04.911Z,100530.33
2019-01-03T13:31:34.541Z,100526.05
2019-01-03T13:34:04.103Z,100528.28
2019-01-03T13:36:33.660Z,100532.52
2019-01-03T13:39:03.874Z,100528.19
2019-01-03T13:41:33.477Z,100536.04
2019-01-03T13:44:03.093Z,100531.83
2019-01-03T13:46:32.688Z,100525.48
2019-01-03T13:49:02.265Z,100527.20
2019-01-03T13:51:31.830Z,100519.63
2019-01-03T13:54:01.438Z,100516.48
2019-01-03T13:56:31.025Z,100521.56
2019-01-03T13:59:00.610Z,100524.38
2019-01-03T14:01:30.219Z,100526.69
2019-01-03T14:03:59.871Z,100523.19
2019-01-03T14:06:29.454Z,100526.02
2019-01-03T14:08:59.062Z,100528.92
2019-01-03T14:11:28.648Z,100527.28
2019-01-03T14:13:58.237Z,100522.09
2019-01-03T14:16:27.699Z,100532.20
2019-01-03T14:18:57.366Z,100526.74
2019-01-03T14:21:26.949Z,100531.86
2019-01-03T14:23:56.538Z,100545.80
2019-01-03T14:26:26.134Z,100548.34
2019-01-03T14:28:55.700Z,100548.56
2019-01-03T14:31:25.637Z,100542.77
2019-01-03T14:33:55.244Z,100542.97
2019-01-03T14:36:24.796Z,100543.81
2019-01-03T14:38:54.456Z,100544.50
2019-01-03T14:41:24.044Z,100543.21
2019-01-03T14:43:53.708Z,100545.37
2019-01-03T14:46:23.280Z,100545.53
2019-01-03T14:48:52.892Z,100542.33
2019-01-03T14:51:22.444Z,100539.27
2019-01-03T14:53:52.026Z,100540.65
2019-01-03T14:56:21.707Z,100540.28
2019-01-03T14:58:51.298Z,100540.64
2019-01-03T15:01:20.874Z,100535.53
2019-01-03T15:03:50.466Z,100533.98
2019-01-03T15:06:20.057Z,100542.70
2019-01-03T15:08:49.640Z,100543.10
2019-01-03T15:11:19.216Z,100536.88
2019-01-03T15:13:48.809Z,100543.91
2019-01-03T15:16:18.403Z,100544.79
2019-01-03T15:18:47.991Z,100549.48
2019-01-03T15:21:17.573Z,100543.46
2019-01-03T15:23:47.208Z,100547.02
2019-01-03T15:26:16.789Z,100539.02
2019-01-03T15:28:46.354Z,100551.31
2019-01-03T15:31:15.960Z,100548.35
2019-01-03T15:33:45.510Z,100551.15
2019-01-03T15:36:15.077Z,100547.69
2019-01-03T15:38:44.693Z,100545.11
2019-01-03T15:41:14.275Z,100554.35
2019-01-03T15:43:43.917Z,100553.66
2019-01-03T15:46:13.508Z,100555.31
2019-01-03T15:48:43.100Z,100553.48
2019-01-03T15:51:12.661Z,100552.91
2019-01-03T15:53:42.295Z,100565.11
2019-01-03T15:56:11.873Z,100563.69
2019-01-03T15:58:41.426Z,100560.52
2019-01-03T16:01:11.017Z,100562.20
2019-01-03T16:03:40.569Z,100565.48
2019-01-03T16:06:10.158Z,100565.26
2019-01-03T16:08:40.016Z,100564.25
2019-01-03T16:11:09.580Z,100569.81
2019-01-03T16:13:39.172Z,100572.53
2019-01-03T16:16:08.772Z,100579.13
2019-01-03T16:18:57.611Z,100572.09
2019-01-03T16:21:27.206Z,100567.64
2019-01-03T16:23:56.807Z,100564.31
2019-01-03T16:26:26.395Z,100567.49
2019-01-03T16:28:56.269Z,100568.42
2019-01-03T16:31:25.938Z,100570.85
2019-01-03T16:33:55.575Z,100563.56
2019-01-03T16:36:25.176Z,100573.01
2019-01-03T16:38:54.749Z,100566.56
2019-01-03T16:41:24.304Z,100567.75
2019-01-03T16:43:53.924Z,100566.24
2019-01-03T16:46:23.503Z,100559.20
2019-01-03T16:48:53.141Z,100563.59
2019-01-03T16:51:22.879Z,100562.27
2019-01-03T16:53:52.457Z,100554.15
2019-01-03T16:56:23.498Z,100563.12
2019-01-03T16:58:53.074Z,100553.01
2019-01-03T17:01:22.665Z,100557.70
2019-01-03T17:03:52.226Z,100566.44
2019-01-03T17:06:23.333Z,100567.29
2019-01-03T17:09:12.185Z,100562.98
2019-01-03T17:11:41.846Z,100561.97
2019-01-03T17:14:11.507Z,100566.73
2019-01-03T17:16:41.095Z,100568.53
2019-01-03T17:19:10.691Z,100567.66
2019-01-03T17:21:40.255Z,100564.14
2019-01-03T17:24:09.811Z,100566.29
2019-01-03T17:26:39.407Z,100567.98
2019-01-03T17:29:08.974Z,100561.48
2019-01-03T17:31:38.549Z,100557.47
2019-01-03T17:34:08.987Z,100556.88
2019-01-03T17:36:38.541Z,100561.23
2019-01-03T17:39:08.213Z,100560.25
2019-01-03T17:41:37.804Z,100557.12
2019-01-03T17:44:16.134Z,100554.61
2019-01-03T17:46:45.762Z,100557.93
2019-01-03T17:49:15.227Z,100561.23
2019-01-03T17:51:44.771Z,100561.36
2019-01-03T17:54:14.380Z,100569.23
2019-01-03T17:56:43.977Z,100572.44
2019-01-03T17:59:13.528Z,100569.09
2019-01-03T18:01:43.137Z,100572.94
2019-01-03T18:04:12.692Z,100578.78
2019-01-03T18:06:42.270Z,100589.63
2019-01-03T18:09:11.910Z,100583.78
2019-01-03T18:11:41.504Z,100580.96
2019-01-03T18:14:11.096Z,100583.03
2019-01-03T18:16:40.681Z,100585.28
2019-01-03T18:19:10.270Z,100587.92
2019-01-03T18:21:39.870Z,100586.78
2019-01-03T18:24:09.425Z,100591.77
2019-01-03T18:26:38.999Z,100590.06
2019-01-03T18:29:08.564Z,100593.92
2019-01-03T18:31:38.266Z,100593.33
2019-01-03T18:34:07.819Z,100594.00
2019-01-03T18:36:37.401Z,100594.89
2019-01-03T18:39:07.664Z,100601.03
2019-01-03T18:41:37.263Z,100602.11
2019-01-03T18:44:07.321Z,100598.17
2019-01-03T18:46:36.916Z,100595.98
2019-01-03T18:49:25.778Z,100599.70
2019-01-03T18:51:55.386Z,100594.25
2019-01-03T18:54:24.964Z,100587.73
2019-01-03T18:56:54.555Z,100587.31
2019-01-03T18:59:24.184Z,100586.55
2019-01-03T19:01:53.769Z,100583.44
2019-01-03T19:04:23.356Z,100581.22
2019-01-03T19:06:52.965Z,100585.13
2019-01-03T19:09:22.586Z,100595.53
2019-01-03T19:11:52.176Z,100597.96
2019-01-03T19:14:21.844Z,100599.16
2019-01-03T19:16:51.422Z,100600.03
2019-01-03T19:19:21.022Z,100606.87
2019-01-03T19:21:50.627Z,100602.38
2019-01-03T19:24:20.222Z,100599.09
2019-01-03T19:26:49.797Z,100601.98
2019-01-03T19:29:19.431Z,100605.46
2019-01-03T19:31:49.004Z,100608.13
2019-01-03T19:34:18.597Z,100597.80
2019-01-03T19:36:48.166Z,100600.55
2019-01-03T19:39:17.759Z,100602.69
2019-01-03T19:41:47.206Z,100604.20
2019-01-03T19:44:16.793Z,100606.02
2019-01-03T19:46:46.431Z,100604.96
2019-01-03T19:49:35.313Z,100602.69
2019-01-03T19:52:04.806Z,100599.87
2019-01-03T19:54:34.408Z,100603.33
2019-01-03T19:57:04.054Z,100601.82
2019-01-03T19:59:33.619Z,100595.57
2019-01-03T20:02:03.208Z,100595.88
2019-01-03T20:04:32.795Z,100594.41
2019-01-03T20:07:02.349Z,100595.28
2019-01-03T20:09:31.951Z,100601.36
2019-01-03T20:12:01.538Z,100603.08
2019-01-03T20:14:31.116Z,100612.28
2019-01-03T20:17:00.729Z,100607.25
2019-01-03T20:19:30.654Z,100608.19
2019-01-03T20:22:00.230Z,100611.17
2019-01-03T20:24:29.802Z,100609.73
2019-01-03T20:26:59.376Z,100604.89
2019-01-03T20:29:30.421Z,100602.22
2019-01-03T20:32:00.087Z,100596.28
2019-01-03T20:34:49.589Z,100588.58
2019-01-03T20:37:19.161Z,100585.55
2019-01-03T20:39:48.742Z,100581.21
2019-01-03T20:42:18.332Z,100584.48
2019-01-03T20:44:47.928Z,100578.28
2019-01-03T20:47:17.541Z,100581.42
2019-01-03T20:49:47.481Z,100583.63
2019-01-03T20:52:17.063Z,100576.63
2019-01-03T20:54:46.616Z,100567.83
2019-01-03T20:57:16.250Z,100570.70
2019-01-03T20:59:45.874Z,100570.05
2019-01-03T21:02:15.475Z,100569.72
2019-01-03T21:04:45.140Z,100576.97
2019-01-03T21:07:14.732Z,100579.07
2019-01-03T21:09:44.295Z,100575.47
2019-01-03T21:12:13.903Z,100572.64
2019-01-03T21:14:43.495Z,100568.87
2019-01-03T21:17:13.468Z,100568.54
2019-01-03T21:19:43.079Z,100568.31
2019-01-03T21:22:12.658Z,100573.00
2019-01-03T21:24:42.305Z,100565.19
2019-01-03T21:27:12.322Z,100561.53
2019-01-03T21:29:47.511Z,100512.89
2019-01-03T21:32:17.188Z,100574.77
2019-01-03T21:34:52.919Z,100573.66
2019-01-03T21:37:22.464Z,100575.26
2019-01-03T21:39:52.058Z,100572.14
2019-01-03T21:42:21.665Z,100573.44
2019-01-03T21:44:51.275Z,100573.75
2019-01-03T21:47:20.909Z,100570.15
2019-01-03T21:49:50.532Z,100566.42
2019-01-03T21:52:20.166Z,100571.09
2019-01-03T21:54:49.765Z,100570.60
2019-01-03T21:57:19.336Z,100569.44
2019-01-03T21:59:48.918Z,100570.02
2019-01-03T22:02:37.789Z,100568.22
2019-01-03T22:05:08.065Z,100564.35
2019-01-03T22:07:37.667Z,100559.37
2019-01-03T22:10:10.218Z,100559.87
2019-01-03T22:12:39.895Z,100555.45
2019-01-03T22:15:10.513Z,100544.92
2019-01-03T22:17:40.515Z,100551.56
2019-01-03T22:20:10.737Z,100549.94
2019-01-03T22:22:40.296Z,100554.06
2019-01-03T22:25:10.117Z,100557.41
2019-01-03T22:27:39.684Z,100556.08
2019-01-03T22:30:11.319Z,100559.59
2019-01-03T22:32:41.014Z,100565.86
2019-01-03T22:35:10.592Z,100570.13
2019-01-03T22:37:40.275Z,100575.95
2019-01-03T22:40:10.216Z,100569.78
2019-01-03T22:42:39.777Z,100565.23
2019-01-03T22:45:28.661Z,100567.81
2019-01-03T22:47:58.271Z,100574.08
2019-01-03T22:50:27.817Z,100583.49
2019-01-03T22:52:57.396Z,100583.86
2019-01-03T22:55:26.977Z,100581.20
2019-01-03T22:57:56.550Z,100596.05
2019-01-03T23:00:30.868Z,100597.64
2019-01-03T23:03:00.525Z,100601.52
2019-01-03T23:05:30.109Z,100593.97
2019-01-03T23:07:59.969Z,100605.46
2019-01-03T23:10:29.532Z,100603.11
2019-01-03T23:12:59.096Z,100607.94
2019-01-03T23:15:28.786Z,100604.21
2019-01-03T23:17:59.848Z,100602.15
2019-01-03T23:20:29.423Z,100619.04
2019-01-03T23:22:59.043Z,100617.66
2019-01-03T23:25:28.636Z,100626.02
2019-01-03T23:27:58.226Z,100629.14
2019-01-03T23:30:28.297Z,100622.11
2019-01-03T23:32:57.858Z,100619.61
2019-01-03T23:35:28.537Z,100619.61
2019-01-03T23:37:58.208Z,100620.14
2019-01-03T23:40:47.082Z,100590.56
2019-01-03T23:43:17.228Z,100628.64
2019-01-03T23:45:46.808Z,100630.48
2019-01-03T23:48:16.417Z,100630.09
2019-01-03T23:50:47.745Z,100625.56
2019-01-03T23:53:17.395Z,100623.86
2019-01-03T23:55:50.604Z,100631.59
2019-01-03T23:58:39.547Z,100624.63
